createdAt,value
2019-06-20T00:00:46.953Z,27.26
2019-06-20T00:03:17.205Z,27.17
2019-06-20T00:05:47.482Z,27.29
2019-06-20T00:08:18.984Z,27.31
2019-06-20T00:10:49.835Z,27.35
2019-06-20T00:13:23.637Z,27.38
2019-06-20T00:16:02.885Z,27.37
2019-06-20T00:18:33.481Z,27.35
2019-06-20T00:21:07.072Z,27.36
2019-06-20T00:23:37.378Z,27.37
2019-06-20T00:26:07.586Z,27.39
2019-06-20T00:28:37.842Z,27.41
2019-06-20T00:31:09.744Z,27.42
2019-06-20T00:33:40.060Z,27.43
2019-06-20T00:36:10.320Z,27.42
2019-06-20T00:38:40.528Z,27.29
2019-06-20T00:41:10.806Z,27.42
2019-06-20T00:43:41.565Z,27.44
2019-06-20T00:46:11.889Z,27.00
2019-06-20T00:48:42.431Z,27.34
2019-06-20T00:51:12.627Z,27.37
2019-06-20T00:53:44.002Z,27.33
2019-06-20T00:56:15.764Z,27.27
2019-06-20T00:58:46.004Z,27.35
2019-06-20T01:01:17.466Z,27.30
2019-06-20T01:03:47.873Z,27.33
2019-06-20T01:06:19.635Z,27.28
2019-06-20T01:08:51.886Z,27.36
2019-06-20T01:11:22.072Z,27.33
2019-06-20T01:13:52.992Z,27.12
2019-06-20T01:16:23.909Z,26.92
2019-06-20T01:18:54.117Z,26.82
2019-06-20T01:21:24.673Z,26.47
2019-06-20T01:23:58.554Z,26.71
2019-06-20T01:26:30.323Z,26.81
2019-06-20T01:29:00.548Z,26.20
2019-06-20T01:31:33.732Z,26.29
2019-06-20T01:34:07.659Z,26.33
2019-06-20T01:36:38.377Z,26.04
2019-06-20T01:39:08.991Z,26.18
2019-06-20T01:41:39.155Z,25.80
2019-06-20T01:44:09.377Z,25.88
2019-06-20T01:46:40.424Z,25.35
2019-06-20T01:49:10.632Z,25.79
2019-06-20T01:51:43.163Z,25.13
2019-06-20T01:54:13.386Z,25.68
2019-06-20T01:56:44.230Z,25.80
2019-06-20T01:59:14.403Z,25.95
2019-06-20T02:01:44.630Z,25.96
2019-06-20T02:04:14.976Z,25.71
2019-06-20T02:06:48.222Z,25.89
2019-06-20T02:09:18.432Z,25.93
2019-06-20T02:11:48.642Z,25.89
2019-06-20T02:14:19.951Z,25.96
2019-06-20T02:16:50.618Z,25.50
2019-06-20T02:19:20.866Z,25.94
2019-06-20T02:21:51.109Z,26.05
2019-06-20T02:24:23.734Z,25.87
2019-06-20T02:26:54.033Z,26.00
2019-06-20T02:29:24.749Z,25.53
2019-06-20T02:31:57.821Z,25.71
2019-06-20T02:34:28.044Z,25.78
2019-06-20T02:36:59.785Z,25.61
2019-06-20T02:39:30.845Z,25.69
2019-06-20T02:42:01.217Z,25.65
2019-06-20T02:44:31.434Z,25.66
2019-06-20T02:47:01.640Z,25.77
2019-06-20T02:49:34.508Z,25.77
2019-06-20T02:52:05.203Z,25.89
2019-06-20T02:54:37.852Z,25.82
2019-06-20T02:57:08.127Z,25.68
2019-06-20T02:59:39.004Z,25.50
2019-06-20T03:02:10.956Z,25.53
2019-06-20T03:04:45.491Z,25.70
2019-06-20T03:07:14.404Z,25.70
2019-06-20T03:09:45.101Z,25.69
2019-06-20T03:12:15.307Z,25.82
2019-06-20T03:14:45.995Z,25.91
2019-06-20T03:17:17.732Z,25.85
2019-06-20T03:19:47.924Z,25.75
2019-06-20T03:22:19.069Z,25.61
2019-06-20T03:24:49.249Z,25.57
2019-06-20T03:27:19.748Z,25.50
2019-06-20T03:29:51.509Z,25.52
2019-06-20T03:32:25.528Z,25.58
2019-06-20T03:34:56.147Z,25.29
2019-06-20T03:37:26.350Z,25.26
2019-06-20T03:39:56.558Z,25.19
2019-06-20T03:42:26.884Z,25.05
2019-06-20T03:45:02.427Z,24.78
2019-06-20T03:47:32.017Z,24.64
2019-06-20T03:50:02.223Z,23.73
2019-06-20T03:52:33.228Z,24.37
2019-06-20T03:55:03.936Z,24.04
2019-06-20T03:57:34.201Z,23.84
2019-06-20T04:00:04.968Z,24.22
2019-06-20T04:02:35.363Z,24.29
2019-06-20T04:05:07.152Z,24.36
2019-06-20T04:07:37.378Z,24.56
2019-06-20T04:10:07.657Z,24.76
2019-06-20T04:12:38.207Z,24.81
2019-06-20T04:15:18.640Z,24.90
2019-06-20T04:17:41.335Z,24.88
2019-06-20T04:20:11.550Z,25.00
2019-06-20T04:22:41.887Z,24.46
2019-06-20T04:25:12.088Z,24.81
2019-06-20T04:27:42.858Z,23.93
2019-06-20T04:30:13.169Z,24.04
2019-06-20T04:32:46.591Z,24.13
2019-06-20T04:35:17.928Z,24.10
2019-06-20T04:37:49.578Z,24.05
2019-06-20T04:40:22.649Z,23.90
2019-06-20T04:42:54.833Z,23.98
2019-06-20T04:45:56.277Z,24.46
2019-06-20T04:48:26.508Z,24.35
2019-06-20T04:50:58.120Z,24.22
2019-06-20T04:53:28.743Z,24.62
2019-06-20T04:55:58.947Z,24.45
2019-06-20T04:58:29.173Z,24.76
2019-06-20T05:00:59.436Z,24.97
2019-06-20T05:03:30.439Z,24.93
2019-06-20T05:06:01.052Z,25.01
2019-06-20T05:08:31.286Z,24.86
2019-06-20T05:11:01.493Z,25.21
2019-06-20T05:13:31.805Z,25.36
2019-06-20T05:16:02.475Z,25.41
2019-06-20T05:18:32.705Z,25.24
2019-06-20T05:21:02.948Z,25.40
2019-06-20T05:23:33.169Z,25.45
2019-06-20T05:26:03.840Z,25.69
2019-06-20T05:28:34.049Z,25.58
2019-06-20T05:31:04.291Z,25.34
2019-06-20T05:33:35.381Z,25.46
2019-06-20T05:36:13.160Z,25.13
2019-06-20T05:38:43.449Z,25.14
2019-06-20T05:41:14.751Z,25.46
2019-06-20T05:43:45.072Z,25.26
2019-06-20T05:46:15.729Z,24.95
2019-06-20T05:48:47.039Z,25.21
2019-06-20T05:51:17.256Z,24.87
2019-06-20T05:53:48.122Z,25.01
2019-06-20T05:56:18.795Z,24.64
2019-06-20T05:58:49.120Z,24.89
2019-06-20T06:01:19.323Z,24.92
2019-06-20T06:03:49.531Z,25.16
2019-06-20T06:06:19.831Z,24.98
2019-06-20T06:08:50.573Z,25.28
2019-06-20T06:11:20.895Z,25.18
2019-06-20T06:13:51.122Z,25.30
2019-06-20T06:16:26.151Z,25.64
2019-06-20T06:18:53.225Z,25.65
2019-06-20T06:21:25.893Z,25.87
2019-06-20T06:23:56.221Z,25.38
2019-06-20T06:26:26.554Z,25.45
2019-06-20T06:28:57.275Z,25.60
2019-06-20T06:31:30.529Z,25.59
2019-06-20T06:34:02.555Z,25.70
2019-06-20T06:36:32.766Z,25.82
2019-06-20T06:39:04.172Z,25.10
2019-06-20T06:41:37.523Z,25.24
2019-06-20T06:44:08.935Z,25.46
2019-06-20T06:46:44.837Z,24.69
2019-06-20T06:49:13.356Z,24.59
2019-06-20T06:51:45.034Z,25.00
2019-06-20T06:54:19.851Z,24.92
2019-06-20T06:56:52.504Z,24.70
2019-06-20T06:59:22.818Z,24.38
2019-06-20T07:01:53.474Z,24.69
2019-06-20T07:04:23.671Z,24.73
2019-06-20T07:06:56.164Z,24.85
2019-06-20T07:09:26.371Z,24.72
2019-06-20T07:11:57.065Z,24.16
2019-06-20T07:14:29.441Z,24.65
2019-06-20T07:17:02.961Z,24.98
2019-06-20T07:19:35.213Z,24.99
2019-06-20T07:22:07.857Z,25.10
2019-06-20T07:24:39.052Z,24.86
2019-06-20T07:27:09.638Z,25.14
2019-06-20T07:29:39.818Z,24.96
2019-06-20T07:32:10.141Z,25.44
2019-06-20T07:34:43.356Z,25.46
2019-06-20T07:37:14.205Z,25.19
2019-06-20T07:39:44.398Z,25.46
2019-06-20T07:42:17.217Z,25.70
2019-06-20T07:44:53.361Z,24.85
2019-06-20T07:47:23.600Z,25.30
2019-06-20T07:49:54.104Z,24.93
2019-06-20T07:52:24.361Z,25.27
2019-06-20T07:54:54.831Z,25.52
2019-06-20T07:57:26.821Z,24.84
2019-06-20T07:59:57.964Z,25.15
2019-06-20T08:02:28.175Z,25.52
2019-06-20T08:05:00.118Z,25.13
2019-06-20T08:07:31.112Z,25.33
2019-06-20T08:10:01.430Z,25.54
2019-06-20T08:12:31.675Z,25.65
2019-06-20T08:15:14.525Z,25.76
2019-06-20T08:17:35.757Z,26.45
2019-06-20T08:20:09.255Z,26.81
2019-06-20T08:22:39.454Z,26.82
2019-06-20T08:25:11.254Z,26.67
2019-06-20T08:27:53.091Z,26.49
2019-06-20T08:30:29.227Z,25.88
2019-06-20T08:33:01.893Z,25.93
2019-06-20T08:35:33.378Z,26.28
2019-06-20T08:38:05.574Z,26.64
2019-06-20T08:40:43.519Z,27.04
2019-06-20T08:43:16.164Z,26.81
2019-06-20T08:45:49.013Z,26.33
2019-06-20T08:48:19.518Z,26.88
2019-06-20T08:50:50.303Z,26.78
2019-06-20T08:53:20.548Z,27.02
2019-06-20T08:55:54.687Z,26.95
2019-06-20T08:58:26.555Z,27.04
2019-06-20T09:00:59.663Z,27.47
2019-06-20T09:03:31.787Z,27.36
2019-06-20T09:08:32.244Z,27.06
2019-06-20T09:11:03.931Z,26.29
2019-06-20T09:13:34.682Z,26.72
2019-06-20T09:16:04.999Z,27.14
2019-06-20T09:18:35.252Z,27.48
2019-06-20T09:21:06.576Z,27.69
2019-06-20T09:23:36.774Z,27.08
2019-06-20T09:26:07.470Z,27.86
2019-06-20T09:28:37.641Z,28.15
2019-06-20T09:31:08.167Z,28.43
2019-06-20T09:33:38.494Z,28.26
2019-06-20T09:36:11.008Z,28.07
2019-06-20T09:38:41.218Z,28.27
2019-06-20T09:41:11.433Z,28.56
2019-06-20T09:43:43.974Z,28.05
2019-06-20T09:46:14.734Z,28.23
2019-06-20T09:48:44.957Z,28.15
2019-06-20T09:51:15.178Z,28.53
2019-06-20T09:53:45.410Z,28.79
2019-06-20T09:56:15.876Z,28.54
2019-06-20T09:58:47.863Z,27.77
2019-06-20T10:01:18.243Z,27.34
2019-06-20T10:03:49.012Z,28.25
2019-06-20T10:06:20.435Z,28.80
2019-06-20T10:08:52.321Z,27.42
2019-06-20T10:11:22.844Z,28.13
2019-06-20T10:13:54.298Z,28.32
2019-06-20T10:16:24.827Z,28.68
2019-06-20T10:18:56.470Z,28.74
2019-06-20T10:21:26.999Z,28.84
2019-06-20T10:23:57.655Z,29.07
2019-06-20T10:26:27.979Z,29.16
2019-06-20T10:28:58.691Z,29.65
2019-06-20T10:31:28.936Z,30.18
2019-06-20T10:33:59.126Z,29.92
2019-06-20T10:36:31.413Z,29.35
2019-06-20T10:39:02.168Z,29.47
2019-06-20T10:41:34.158Z,29.24
2019-06-20T10:44:04.378Z,29.19
2019-06-20T10:46:34.705Z,29.62
2019-06-20T10:49:05.723Z,29.83
2019-06-20T10:51:54.030Z,29.91
2019-06-20T10:54:27.186Z,29.42
2019-06-20T10:56:57.820Z,29.46
2019-06-20T10:59:28.147Z,28.69
2019-06-20T11:02:01.564Z,28.93
2019-06-20T11:04:31.868Z,29.47
2019-06-20T11:07:02.059Z,29.37
2019-06-20T11:09:33.873Z,29.68
2019-06-20T11:12:04.626Z,29.94
2019-06-20T11:14:35.151Z,29.69
2019-06-20T11:17:05.370Z,29.69
2019-06-20T11:19:35.569Z,29.60
2019-06-20T11:22:08.236Z,29.85
2019-06-20T11:24:39.230Z,29.93
2019-06-20T11:27:09.618Z,30.23
2019-06-20T11:29:41.656Z,30.87
2019-06-20T11:32:11.845Z,31.34
2019-06-20T11:34:43.054Z,31.29
2019-06-20T11:37:14.651Z,31.38
2019-06-20T11:39:47.408Z,31.69
2019-06-20T11:42:17.798Z,32.06
2019-06-20T11:44:48.498Z,31.67
2019-06-20T11:47:20.615Z,31.53
2019-06-20T11:49:50.779Z,31.32
2019-06-20T11:52:21.006Z,31.06
2019-06-20T11:54:51.659Z,30.92
2019-06-20T11:57:22.003Z,30.75
2019-06-20T11:59:52.193Z,30.97
2019-06-20T12:02:22.422Z,30.39
2019-06-20T12:04:54.684Z,30.54
2019-06-20T12:07:24.935Z,30.88
2019-06-20T12:09:56.675Z,30.68
2019-06-20T12:12:26.936Z,30.26
2019-06-20T12:14:57.748Z,30.65
2019-06-20T12:17:28.018Z,30.70
2019-06-20T12:19:59.269Z,30.97
2019-06-20T12:22:30.591Z,31.03
2019-06-20T12:25:00.809Z,31.29
2019-06-20T12:27:31.143Z,31.38
2019-06-20T12:30:01.987Z,31.33
2019-06-20T12:32:32.226Z,30.86
2019-06-20T12:35:02.464Z,31.02
2019-06-20T12:37:33.082Z,31.05
2019-06-20T12:40:03.367Z,30.94
2019-06-20T12:42:34.170Z,30.42
2019-06-20T12:45:04.901Z,30.40
2019-06-20T12:47:35.238Z,30.64
2019-06-20T12:50:06.046Z,30.70
2019-06-20T12:52:37.857Z,30.70
2019-06-20T12:55:08.705Z,30.55
2019-06-20T12:57:40.872Z,30.46
2019-06-20T13:00:14.637Z,30.36
2019-06-20T13:02:45.664Z,30.17
2019-06-20T13:05:17.870Z,29.91
2019-06-20T13:07:48.137Z,29.47
2019-06-20T13:10:19.210Z,29.73
2019-06-20T13:12:51.518Z,29.51
2019-06-20T13:15:22.089Z,29.31
2019-06-20T13:17:52.308Z,29.33
2019-06-20T13:20:24.109Z,29.05
2019-06-20T13:22:55.356Z,28.71
2019-06-20T13:25:25.547Z,28.51
2019-06-20T13:27:55.887Z,28.41
2019-06-20T13:30:26.112Z,28.24
2019-06-20T13:32:56.313Z,28.33
2019-06-20T13:35:26.541Z,28.31
2019-06-20T13:37:58.142Z,28.19
2019-06-20T13:40:28.436Z,28.09
2019-06-20T13:42:59.726Z,28.17
2019-06-20T13:45:30.079Z,28.13
2019-06-20T13:48:03.060Z,28.13
2019-06-20T13:50:34.804Z,28.32
2019-06-20T13:53:05.088Z,28.70
2019-06-20T13:55:35.913Z,29.03
2019-06-20T13:58:06.622Z,28.86
2019-06-20T14:00:36.850Z,28.74
2019-06-20T14:03:08.168Z,28.42
2019-06-20T14:05:39.671Z,28.47
2019-06-20T14:08:11.545Z,28.63
2019-06-20T14:10:44.091Z,28.58
2019-06-20T14:13:19.023Z,28.68
2019-06-20T14:15:46.151Z,28.75
2019-06-20T14:18:17.345Z,28.43
2019-06-20T14:20:48.534Z,28.65
2019-06-20T14:23:18.856Z,28.60
2019-06-20T14:25:49.117Z,28.52
2019-06-20T14:28:19.831Z,28.42
2019-06-20T14:30:50.374Z,28.52
2019-06-20T14:33:20.776Z,28.39
2019-06-20T14:35:58.999Z,28.43
2019-06-20T14:38:32.600Z,28.23
2019-06-20T14:41:05.119Z,28.19
2019-06-20T14:43:37.036Z,28.01
2019-06-20T14:46:07.348Z,28.23
2019-06-20T14:48:38.002Z,28.30
2019-06-20T14:51:08.332Z,28.34
2019-06-20T14:53:39.047Z,27.98
2019-06-20T14:56:09.276Z,28.00
2019-06-20T14:58:40.927Z,27.88
2019-06-20T15:01:12.730Z,27.97
2019-06-20T15:03:45.640Z,28.02
2019-06-20T15:06:15.365Z,27.92
2019-06-20T15:08:47.147Z,27.93
2019-06-20T15:11:18.006Z,27.87
2019-06-20T15:13:49.606Z,27.40
2019-06-20T15:16:20.234Z,27.55
2019-06-20T15:18:53.715Z,27.49
2019-06-20T15:21:23.015Z,27.51
2019-06-20T15:23:54.417Z,27.53
2019-06-20T15:26:24.673Z,27.66
2019-06-20T15:28:55.566Z,27.66
2019-06-20T15:31:27.439Z,27.70
2019-06-20T15:33:58.248Z,27.70
2019-06-20T15:36:28.435Z,27.67
2019-06-20T15:38:59.203Z,27.82
2019-06-20T15:41:29.748Z,27.89
2019-06-20T15:44:00.481Z,28.00
2019-06-20T15:46:30.735Z,28.14
2019-06-20T15:49:15.206Z,27.56
2019-06-20T15:51:32.890Z,27.78
2019-06-20T15:54:03.952Z,28.23
2019-06-20T15:56:34.174Z,28.17
2019-06-20T15:59:04.436Z,28.38
2019-06-20T16:01:34.970Z,28.53
2019-06-20T16:04:07.201Z,28.58
2019-06-20T16:06:40.683Z,28.66
2019-06-20T16:09:14.817Z,28.82
2019-06-20T16:11:45.638Z,28.87
2019-06-20T16:14:18.076Z,28.79
2019-06-20T16:16:48.528Z,28.80
2019-06-20T16:19:21.444Z,28.98
2019-06-20T16:21:51.693Z,29.02
2019-06-20T16:24:22.321Z,28.62
2019-06-20T16:26:52.533Z,28.80
2019-06-20T16:29:23.014Z,28.79
2019-06-20T16:31:53.225Z,28.95
2019-06-20T16:34:23.488Z,29.03
2019-06-20T16:37:06.585Z,29.04
2019-06-20T16:39:28.495Z,29.06
2019-06-20T16:41:58.815Z,29.04
2019-06-20T16:44:29.087Z,28.95
2019-06-20T16:46:59.308Z,28.95
2019-06-20T16:49:30.010Z,28.82
2019-06-20T16:52:00.635Z,28.94
2019-06-20T16:54:30.945Z,28.65
2019-06-20T16:57:02.389Z,28.71
2019-06-20T16:59:32.768Z,28.55
2019-06-20T17:02:03.514Z,28.72
2019-06-20T17:04:36.213Z,28.60
2019-06-20T17:07:06.412Z,28.44
2019-06-20T17:09:36.688Z,28.49
2019-06-20T17:12:07.055Z,28.35
2019-06-20T17:14:37.783Z,28.30
2019-06-20T17:17:08.057Z,27.86
2019-06-20T17:19:41.946Z,27.12
2019-06-20T17:22:10.268Z,27.77
2019-06-20T17:24:43.181Z,27.65
2019-06-20T17:27:13.421Z,27.77
2019-06-20T17:29:44.017Z,27.90
2019-06-20T17:32:14.623Z,28.04
2019-06-20T17:34:45.309Z,28.15
2019-06-20T17:37:15.643Z,28.12
2019-06-20T17:39:46.470Z,28.17
2019-06-20T17:42:16.950Z,27.89
2019-06-20T17:44:48.604Z,28.08
2019-06-20T17:47:18.975Z,28.11
2019-06-20T17:49:49.238Z,27.97
2019-06-20T17:52:20.219Z,28.03
2019-06-20T17:54:51.276Z,28.10
2019-06-20T17:57:21.521Z,28.19
2019-06-20T17:59:51.780Z,28.29
2019-06-20T18:02:23.306Z,28.04
2019-06-20T18:04:54.003Z,28.27
2019-06-20T18:07:24.403Z,28.35
2019-06-20T18:09:54.591Z,27.96
2019-06-20T18:12:25.048Z,28.02
2019-06-20T18:14:55.739Z,28.24
2019-06-20T18:17:26.385Z,28.31
2019-06-20T18:19:56.600Z,28.35
2019-06-20T18:22:26.927Z,28.13
2019-06-20T18:24:58.670Z,27.62
2019-06-20T18:27:30.298Z,28.02
2019-06-20T18:30:00.598Z,28.07
2019-06-20T18:32:30.911Z,28.08
2019-06-20T18:35:02.691Z,27.98
2019-06-20T18:37:34.700Z,28.19
2019-06-20T18:40:07.374Z,28.25
2019-06-20T18:42:39.419Z,28.34
2019-06-20T18:45:10.717Z,28.24
2019-06-20T18:47:41.421Z,28.23
2019-06-20T18:50:11.729Z,28.20
2019-06-20T18:52:51.523Z,28.27
2019-06-20T18:55:14.306Z,28.31
2019-06-20T18:57:44.510Z,28.29
2019-06-20T19:00:15.457Z,28.08
2019-06-20T19:02:50.057Z,28.10
2019-06-20T19:05:20.904Z,28.02
2019-06-20T19:07:51.673Z,27.63
2019-06-20T19:10:25.294Z,27.53
2019-06-20T19:12:55.518Z,27.65
2019-06-20T19:15:26.334Z,27.60
2019-06-20T19:17:56.995Z,27.73
2019-06-20T19:20:27.381Z,27.72
2019-06-20T19:22:57.698Z,27.54
2019-06-20T19:25:27.843Z,27.61
2019-06-20T19:27:58.538Z,27.67
2019-06-20T19:30:39.829Z,27.66
2019-06-20T19:33:10.107Z,27.71
2019-06-20T19:35:40.386Z,27.69
2019-06-20T19:38:11.695Z,27.65
2019-06-20T19:40:46.513Z,27.60
2019-06-20T19:43:17.653Z,27.49
2019-06-20T19:45:48.812Z,27.41
2019-06-20T19:48:19.047Z,27.48
2019-06-20T19:50:50.023Z,27.42
2019-06-20T19:53:20.710Z,27.40
2019-06-20T19:55:52.973Z,27.32
2019-06-20T19:58:26.460Z,27.28
2019-06-20T20:00:57.564Z,27.30
2019-06-20T20:03:30.300Z,27.17
2019-06-20T20:06:00.746Z,27.14
2019-06-20T20:08:31.393Z,27.13
2019-06-20T20:11:03.696Z,27.10
2019-06-20T20:13:34.503Z,27.05
2019-06-20T20:16:05.285Z,27.03
2019-06-20T20:18:35.617Z,26.98
2019-06-20T20:21:06.330Z,26.99
2019-06-20T20:23:36.623Z,26.88
2019-06-20T20:26:08.799Z,26.89
2019-06-20T20:28:39.425Z,26.88
2019-06-20T20:31:11.679Z,26.82
2019-06-20T20:33:41.916Z,26.78
2019-06-20T20:36:24.388Z,26.70
2019-06-20T20:38:44.213Z,26.69
2019-06-20T20:41:21.290Z,26.62
2019-06-20T20:43:51.856Z,26.61
2019-06-20T20:46:23.918Z,26.64
2019-06-20T20:48:54.196Z,26.61
2019-06-20T20:51:25.180Z,26.62
2019-06-20T20:53:58.845Z,26.60
2019-06-20T20:56:29.085Z,26.56
2019-06-20T20:58:59.290Z,26.53
2019-06-20T21:01:35.316Z,26.47
2019-06-20T21:04:04.636Z,26.47
2019-06-20T21:06:34.915Z,26.45
2019-06-20T21:09:06.795Z,26.46
2019-06-20T21:11:38.474Z,26.45
2019-06-20T21:14:09.560Z,26.34
2019-06-20T21:16:40.256Z,26.21
2019-06-20T21:19:10.518Z,26.24
2019-06-20T21:21:40.801Z,26.17
2019-06-20T21:24:11.869Z,26.19
2019-06-20T21:26:49.539Z,26.22
2019-06-20T21:29:15.372Z,26.21
2019-06-20T21:31:45.813Z,26.09
2019-06-20T21:34:16.835Z,26.18
2019-06-20T21:36:47.162Z,26.13
2019-06-20T21:39:19.020Z,26.09
2019-06-20T21:41:49.862Z,26.00
2019-06-20T21:44:20.617Z,26.08
2019-06-20T21:46:51.106Z,26.06
2019-06-20T21:49:21.971Z,26.07
2019-06-20T21:51:52.294Z,26.03
2019-06-20T21:54:23.171Z,25.98
2019-06-20T21:56:53.416Z,25.97
2019-06-20T21:59:23.618Z,25.88
2019-06-20T22:01:54.457Z,25.96
2019-06-20T22:04:25.572Z,25.99
2019-06-20T22:06:56.266Z,25.98
2019-06-20T22:09:26.776Z,26.03
2019-06-20T22:11:58.032Z,26.05
2019-06-20T22:14:32.440Z,26.05
2019-06-20T22:17:02.275Z,26.04
2019-06-20T22:19:32.518Z,26.04
2019-06-20T22:22:03.173Z,26.05
2019-06-20T22:24:33.903Z,25.91
2019-06-20T22:27:18.282Z,25.95
2019-06-20T22:29:48.850Z,25.98
2019-06-20T22:32:19.244Z,26.03
2019-06-20T22:34:50.004Z,26.07
2019-06-20T22:37:23.256Z,26.08
2019-06-20T22:39:54.802Z,26.10
2019-06-20T22:42:26.914Z,26.04
2019-06-20T22:44:57.673Z,26.10
2019-06-20T22:47:28.997Z,26.13
2019-06-20T22:49:59.255Z,26.15
2019-06-20T22:52:30.065Z,26.14
2019-06-20T22:55:00.717Z,26.15
2019-06-20T22:57:32.152Z,26.13
2019-06-20T23:00:02.382Z,26.15
2019-06-20T23:02:32.719Z,26.15
2019-06-20T23:05:04.721Z,26.13
2019-06-20T23:07:35.396Z,26.14
2019-06-20T23:10:10.491Z,26.14
2019-06-20T23:12:38.427Z,26.14
2019-06-20T23:15:11.025Z,26.14
2019-06-20T23:17:41.806Z,26.02
2019-06-20T23:20:19.139Z,26.06
2019-06-20T23:23:02.334Z,26.04
2019-06-20T23:25:40.655Z,26.03
2019-06-20T23:28:13.093Z,26.02
2019-06-20T23:30:44.892Z,26.04
2019-06-20T23:33:17.802Z,26.04
2019-06-20T23:36:03.045Z,26.00
2019-06-20T23:38:36.252Z,25.98
2019-06-20T23:41:18.655Z,25.93
2019-06-20T23:43:50.701Z,25.71
2019-06-20T23:46:22.231Z,25.80
2019-06-20T23:49:02.807Z,25.77
2019-06-20T23:51:46.978Z,25.77
2019-06-20T23:54:19.168Z,25.79
2019-06-20T23:56:50.573Z,25.83
2019-06-20T23:59:20.841Z,25.80
